Time;durP1;ratioP1;P1;durP2;ratioP2;P2;SDS_P1;SDS_P2;PMS_P1;PMS_P2;Temp;Humidity;BMP_temperature;BMP_pressure;BME280_temperature;BME280_humidity;BME280_pressure;Samples;Min_cycle;Max_cycle;Signal;HPM_P1;HPM_P2
2021/10/31 00:00:51;;;;;;;9.20;5.97;;;14.80;88.10;;;;;;5052230;28;20036;-79
2021/10/31 00:03:17;;;;;;;8.35;5.28;;;14.80;88.00;;;;;;5052120;28;20021;-79
2021/10/31 00:05:44;;;;;;;9.05;6.00;;;14.80;88.00;;;;;;5051930;28;20051;-79
2021/10/31 00:08:09;;;;;;;8.52;5.80;;;14.80;88.00;;;;;;5053264;28;20021;-78
2021/10/31 00:10:35;;;;;;;8.85;5.82;;;14.80;88.00;;;;;;5052305;28;20039;-78
2021/10/31 00:13:00;;;;;;;10.02;6.15;;;14.80;88.00;;;;;;5053284;28;20025;-79
2021/10/31 00:15:26;;;;;;;9.82;5.90;;;14.80;88.00;;;;;;5051832;28;20025;-79
2021/10/31 00:17:52;;;;;;;9.98;6.13;;;14.80;88.10;;;;;;5051735;28;20112;-78
2021/10/31 00:20:17;;;;;;;11.35;6.35;;;14.80;88.20;;;;;;5051745;28;20017;-78
2021/10/31 00:22:44;;;;;;;8.02;5.78;;;14.80;88.40;;;;;;5051749;28;20113;-77
2021/10/31 00:25:11;;;;;;;9.32;6.32;;;14.70;88.40;;;;;;5051573;28;20033;-78
2021/10/31 00:27:38;;;;;;;9.07;6.15;;;14.70;88.50;;;;;;5051586;28;20438;-78
2021/10/31 00:30:04;;;;;;;9.60;6.47;;;14.70;88.70;;;;;;5051600;28;20048;-78
2021/10/31 00:32:30;;;;;;;7.90;5.63;;;14.70;88.80;;;;;;5051659;28;20450;-78
2021/10/31 00:34:55;;;;;;;9.93;6.20;;;14.70;88.80;;;;;;5051527;28;20124;-77
2021/10/31 00:37:21;;;;;;;8.57;5.65;;;14.70;88.80;;;;;;5051417;28;20072;-78
2021/10/31 00:39:46;;;;;;;9.98;5.97;;;14.70;89.00;;;;;;5051528;28;20386;-77
2021/10/31 00:42:12;;;;;;;9.07;6.20;;;14.70;89.10;;;;;;5051336;28;20037;-77
2021/10/31 00:44:39;;;;;;;8.82;5.75;;;14.70;89.10;;;;;;5051384;28;20025;-78
2021/10/31 00:47:04;;;;;;;8.13;5.50;;;14.60;89.10;;;;;;5052323;28;20501;-81
2021/10/31 00:49:30;;;;;;;10.35;6.00;;;14.60;89.10;;;;;;5051430;28;20061;-77
2021/10/31 00:51:56;;;;;;;8.40;5.93;;;14.60;89.10;;;;;;5052697;28;20082;-79
2021/10/31 00:54:21;;;;;;;8.73;5.85;;;14.60;89.00;;;;;;5051304;28;20032;-77
2021/10/31 00:56:47;;;;;;;8.85;5.90;;;14.60;89.20;;;;;;5050981;28;20021;-78
2021/10/31 00:59:13;;;;;;;10.77;6.05;;;14.60;89.20;;;;;;5050996;28;20032;-78
2021/10/31 01:01:38;;;;;;;8.77;5.82;;;14.60;89.20;;;;;;5051257;28;20401;-80
2021/10/31 01:04:05;;;;;;;8.40;5.57;;;14.60;89.10;;;;;;5051238;28;20063;-79
2021/10/31 01:06:49;;;;;;;9.18;5.85;;;14.60;89.30;;;;;;5051020;28;20021;-79
2021/10/31 01:09:40;;;;;;;8.25;5.22;;;14.60;89.20;;;;;;5052614;28;20029;-79
2021/10/31 01:12:43;;;;;;;8.18;5.40;;;14.60;89.20;;;;;;5051116;28;20472;-78
2021/10/31 01:15:18;;;;;;;8.55;5.38;;;14.60;89.20;;;;;;5052144;28;20080;-78
2021/10/31 01:17:59;;;;;;;10.25;5.97;;;14.60;89.30;;;;;;5050810;28;20081;-80
2021/10/31 01:20:28;;;;;;;8.30;5.78;;;14.60;89.30;;;;;;5051128;28;20021;-78
2021/10/31 01:23:45;;;;;;;8.90;5.90;;;14.60;89.20;;;;;;5050944;28;20051;-78
2021/10/31 01:26:26;;;;;;;8.43;5.85;;;14.60;89.30;;;;;;4993819;28;20025;-77
2021/10/31 01:29:10;;;;;;;10.27;5.60;;;14.60;89.40;;;;;;4993999;28;20032;-79
2021/10/31 01:31:44;;;;;;;8.20;5.55;;;14.60;89.30;;;;;;5043459;28;20033;-78
2021/10/31 01:34:24;;;;;;;7.97;5.13;;;14.60;89.30;;;;;;5052122;28;20394;-79
2021/10/31 01:37:05;;;;;;;10.45;5.82;;;14.60;89.30;;;;;;5050864;28;20056;-79
2021/10/31 01:39:40;;;;;;;8.82;5.60;;;14.60;89.40;;;;;;5050973;28;20372;-78
2021/10/31 01:42:37;;;;;;;8.20;5.70;;;14.60;89.50;;;;;;5050950;28;20379;-79
2021/10/31 01:45:08;;;;;;;8.77;5.70;;;14.60;89.40;;;;;;5026069;28;20037;-77
2021/10/31 01:48:02;;;;;;;9.05;5.93;;;14.60;89.40;;;;;;5050745;28;20046;-82
2021/10/31 01:50:37;;;;;;;7.70;5.60;;;14.60;89.40;;;;;;5050930;28;20444;-78
2021/10/31 01:53:25;;;;;;;8.55;5.53;;;14.60;89.40;;;;;;5050850;28;20029;-80
2021/10/31 01:56:13;;;;;;;9.10;5.45;;;14.60;89.50;;;;;;5051348;28;20025;-78
2021/10/31 01:58:45;;;;;;;7.75;5.45;;;14.60;89.50;;;;;;5054796;28;20382;-78
2021/10/31 02:01:15;;;;;;;9.85;5.70;;;14.60;89.50;;;;;;5055974;28;20086;-79
2021/10/31 02:03:42;;;;;;;7.43;5.00;;;14.60;89.40;;;;;;5054524;28;20112;-78
2021/10/31 02:06:10;;;;;;;7.95;5.40;;;14.60;89.50;;;;;;5054185;28;20025;-79
2021/10/31 02:08:38;;;;;;;8.90;5.70;;;14.70;89.60;;;;;;5054245;28;20494;-79
2021/10/31 02:11:05;;;;;;;9.05;5.68;;;14.60;89.50;;;;;;5054483;28;20062;-79
2021/10/31 02:13:32;;;;;;;9.00;6.00;;;14.60;89.60;;;;;;5055554;28;20104;-78
2021/10/31 02:15:58;;;;;;;8.35;5.30;;;14.60;89.40;;;;;;5053875;28;20033;-78
2021/10/31 02:18:26;;;;;;;8.50;5.88;;;14.70;89.70;;;;;;5054122;28;20119;-78
2021/10/31 02:20:57;;;;;;;8.68;5.70;;;14.60;89.50;;;;;;5055294;28;20013;-79
2021/10/31 02:23:23;;;;;;;7.43;5.10;;;14.60;89.40;;;;;;5054154;28;20025;-78
2021/10/31 02:25:49;;;;;;;8.23;5.30;;;14.70;89.30;;;;;;5053896;28;20068;-79
2021/10/31 02:28:15;;;;;;;7.88;5.38;;;14.70;89.20;;;;;;5053990;28;20509;-78
2021/10/31 02:30:41;;;;;;;8.07;5.40;;;14.70;89.20;;;;;;5053937;28;20060;-78
2021/10/31 02:33:07;;;;;;;8.25;5.68;;;14.70;89.20;;;;;;5054031;28;20052;-80
2021/10/31 02:35:33;;;;;;;8.35;5.50;;;14.70;89.00;;;;;;5053616;28;20033;-78
2021/10/31 02:37:59;;;;;;;8.82;5.70;;;14.70;89.10;;;;;;5053798;28;20079;-79
2021/10/31 02:40:24;;;;;;;7.82;5.30;;;14.70;89.00;;;;;;5053821;28;20056;-77
2021/10/31 02:42:51;;;;;;;8.05;5.32;;;14.70;89.00;;;;;;5053692;28;20486;-79
2021/10/31 02:45:17;;;;;;;9.68;5.32;;;14.80;89.10;;;;;;5054668;28;20029;-79
2021/10/31 02:47:54;;;;;;;7.60;5.00;;;14.80;89.00;;;;;;5053528;28;20075;-78
2021/10/31 02:50:23;;;;;;;8.90;5.20;;;14.80;89.00;;;;;;5053629;28;20556;-79
2021/10/31 02:53:20;;;;;;;8.05;5.30;;;14.80;89.00;;;;;;5053597;28;20028;-78
2021/10/31 02:55:45;;;;;;;8.00;5.07;;;14.80;89.00;;;;;;5053252;28;20036;-79
2021/10/31 02:58:44;;;;;;;7.55;5.15;;;14.70;89.10;;;;;;5053479;28;20021;-76
2021/10/31 03:01:11;;;;;;;8.40;5.65;;;14.70;89.20;;;;;;5028265;28;20064;-79
2021/10/31 03:03:37;;;;;;;8.60;5.20;;;14.70;89.40;;;;;;5053272;28;20632;-78
2021/10/31 03:06:04;;;;;;;7.70;5.45;;;14.70;89.50;;;;;;5053085;28;20048;-79
2021/10/31 03:08:31;;;;;;;7.45;5.18;;;14.70;89.60;;;;;;5051891;28;20028;-78
2021/10/31 03:10:58;;;;;;;8.00;5.68;;;14.60;89.60;;;;;;5053253;28;20053;-77
2021/10/31 03:13:25;;;;;;;8.05;5.90;;;14.60;89.80;;;;;;5054291;28;20032;-78
2021/10/31 03:15:52;;;;;;;8.30;5.45;;;14.60;89.80;;;;;;5052858;28;20371;-79
2021/10/31 03:18:18;;;;;;;8.25;5.45;;;14.60;89.90;;;;;;5053019;28;20034;-78
2021/10/31 03:20:43;;;;;;;9.13;5.70;;;14.60;90.00;;;;;;5053162;28;20471;-78
2021/10/31 03:23:09;;;;;;;9.18;5.90;;;14.60;90.00;;;;;;5052977;28;20032;-79
2021/10/31 03:25:35;;;;;;;7.40;5.28;;;14.60;90.00;;;;;;5052877;28;20031;-78
2021/10/31 03:28:01;;;;;;;7.97;5.18;;;14.60;90.00;;;;;;5052914;28;20394;-79
2021/10/31 03:30:27;;;;;;;8.70;6.00;;;14.60;90.00;;;;;;5052998;28;20025;-78
2021/10/31 03:32:52;;;;;;;7.88;5.85;;;14.60;90.00;;;;;;5052533;28;20028;-78
2021/10/31 03:35:18;;;;;;;8.45;5.95;;;14.60;90.00;;;;;;5052777;28;20048;-78
2021/10/31 03:37:43;;;;;;;8.23;5.72;;;14.60;90.00;;;;;;5052657;28;20482;-80
2021/10/31 03:40:10;;;;;;;9.65;6.20;;;14.60;90.00;;;;;;5053027;28;20021;-78
2021/10/31 03:42:37;;;;;;;9.07;6.22;;;14.60;90.00;;;;;;5052603;28;20405;-79
2021/10/31 03:45:09;;;;;;;8.38;5.95;;;14.60;90.00;;;;;;5052470;28;20514;-80
2021/10/31 03:47:37;;;;;;;8.32;5.93;;;14.60;90.00;;;;;;5052554;28;20082;-77
2021/10/31 03:50:03;;;;;;;8.57;5.85;;;14.60;90.00;;;;;;5049870;28;20115;-78
2021/10/31 03:52:28;;;;;;;8.05;5.88;;;14.60;90.00;;;;;;5048852;28;20435;-77
2021/10/31 03:54:54;;;;;;;9.32;5.75;;;14.60;90.00;;;;;;5032414;28;20038;-77
2021/10/31 03:57:19;;;;;;;7.55;5.13;;;14.60;90.00;;;;;;5032140;28;20032;-78
2021/10/31 03:59:45;;;;;;;8.32;5.78;;;14.60;90.00;;;;;;5032309;28;20487;-77
2021/10/31 04:02:10;;;;;;;7.60;5.53;;;14.60;90.00;;;;;;5033686;28;20548;-77
2021/10/31 04:04:36;;;;;;;9.23;5.88;;;14.60;90.00;;;;;;5032237;28;20076;-78
2021/10/31 04:07:02;;;;;;;8.32;5.68;;;14.60;90.00;;;;;;5033110;28;20017;-79
2021/10/31 04:09:28;;;;;;;7.95;5.18;;;14.60;90.00;;;;;;5032461;28;20049;-80
2021/10/31 04:11:54;;;;;;;8.35;5.68;;;14.60;90.00;;;;;;5032186;28;20029;-78
2021/10/31 04:14:19;;;;;;;8.70;5.68;;;14.60;90.00;;;;;;5032219;28;20036;-78
2021/10/31 04:16:45;;;;;;;8.40;5.75;;;14.60;90.00;;;;;;5033104;28;20022;-78
2021/10/31 04:19:11;;;;;;;8.07;5.55;;;14.60;90.00;;;;;;5090009;23;20049;-79
2021/10/31 04:21:36;;;;;;;8.98;6.05;;;14.60;90.00;;;;;;5035908;28;20029;-79
2021/10/31 04:24:02;;;;;;;8.45;5.68;;;14.60;90.00;;;;;;5035662;28;20029;-77
2021/10/31 04:26:27;;;;;;;8.60;5.82;;;14.60;90.00;;;;;;5035242;28;20036;-78
2021/10/31 04:28:53;;;;;;;8.93;6.13;;;14.60;90.00;;;;;;5032792;28;20053;-78
2021/10/31 04:31:18;;;;;;;9.35;5.82;;;14.60;90.00;;;;;;5017657;28;20029;-78
2021/10/31 04:33:44;;;;;;;7.60;5.10;;;14.60;90.00;;;;;;5015677;28;20038;-78
2021/10/31 04:36:09;;;;;;;9.82;5.65;;;14.60;90.00;;;;;;5032042;28;20030;-78
2021/10/31 04:38:35;;;;;;;8.75;5.82;;;14.60;90.10;;;;;;5032353;28;20169;-78
2021/10/31 04:41:01;;;;;;;9.15;6.05;;;14.60;90.00;;;;;;5015351;28;20395;-78
2021/10/31 04:43:27;;;;;;;8.35;5.57;;;14.60;90.00;;;;;;5032251;28;20395;-78
2021/10/31 04:45:53;;;;;;;9.07;5.65;;;14.60;90.00;;;;;;5015819;28;20021;-78
2021/10/31 04:48:21;;;;;;;8.93;5.93;;;14.60;90.00;;;;;;5015557;28;20037;-78
2021/10/31 04:50:47;;;;;;;8.13;6.03;;;14.60;90.00;;;;;;5014349;28;20490;-78
2021/10/31 04:53:12;;;;;;;8.30;6.00;;;14.60;90.00;;;;;;5014559;28;20069;-78
2021/10/31 04:55:40;;;;;;;7.60;5.47;;;14.60;90.00;;;;;;5015696;28;20030;-78
2021/10/31 04:58:06;;;;;;;9.20;5.70;;;14.60;90.00;;;;;;5016229;28;20022;-78
2021/10/31 05:00:32;;;;;;;9.57;6.00;;;14.60;90.00;;;;;;5014308;28;20022;-78
2021/10/31 05:02:58;;;;;;;8.48;6.03;;;14.60;89.90;;;;;;5014354;28;20026;-78
2021/10/31 05:05:23;;;;;;;9.10;5.80;;;14.60;89.90;;;;;;5013684;28;20076;-78
2021/10/31 05:07:49;;;;;;;8.27;5.78;;;14.60;89.70;;;;;;5013941;28;20400;-78
2021/10/31 05:10:19;;;;;;;8.25;5.72;;;14.60;89.70;;;;;;5013813;28;20407;-78
2021/10/31 05:12:45;;;;;;;8.77;6.10;;;14.70;89.70;;;;;;5014128;28;20380;-78
2021/10/31 05:15:11;;;;;;;8.43;5.63;;;14.70;89.70;;;;;;5029713;28;20030;-79
2021/10/31 05:17:38;;;;;;;7.60;5.30;;;14.70;89.70;;;;;;5015008;28;20018;-78
2021/10/31 05:20:04;;;;;;;8.45;5.53;;;14.70;89.60;;;;;;5013413;28;20551;-78
2021/10/31 05:22:30;;;;;;;7.75;5.40;;;14.70;89.50;;;;;;5014595;28;20026;-78
2021/10/31 05:24:56;;;;;;;7.63;5.32;;;14.70;89.50;;;;;;5013117;28;20414;-78
2021/10/31 05:27:21;;;;;;;8.70;5.63;;;14.70;89.40;;;;;;5014152;28;20036;-77
2021/10/31 05:29:48;;;;;;;8.45;5.45;;;14.70;89.50;;;;;;5013006;28;20022;-78
2021/10/31 05:32:13;;;;;;;8.02;5.30;;;14.70;89.40;;;;;;5016365;28;20057;-78
2021/10/31 05:34:39;;;;;;;7.68;5.53;;;14.70;89.50;;;;;;5018215;28;20030;-77
2021/10/31 05:37:04;;;;;;;7.25;5.22;;;14.70;89.40;;;;;;5018381;28;20026;-78
2021/10/31 05:39:30;;;;;;;7.85;5.28;;;14.70;89.40;;;;;;5017155;28;20391;-78
2021/10/31 05:41:55;;;;;;;8.75;5.65;;;14.70;89.90;;;;;;5018311;28;20034;-78
2021/10/31 05:44:21;;;;;;;7.82;5.35;;;14.70;89.40;;;;;;5017778;28;20118;-78
2021/10/31 05:46:46;;;;;;;9.43;5.63;;;14.70;89.40;;;;;;5016010;28;20467;-78
2021/10/31 05:49:12;;;;;;;9.20;5.72;;;14.70;89.50;;;;;;5017783;28;20034;-77
2021/10/31 05:51:38;;;;;;;7.70;5.32;;;14.70;89.70;;;;;;5015117;28;20095;-77
2021/10/31 05:54:04;;;;;;;8.80;6.47;;;14.60;89.70;;;;;;5015790;28;20062;-77
2021/10/31 05:56:30;;;;;;;8.00;5.20;;;14.60;90.00;;;;;;5016849;28;20029;-77
2021/10/31 05:58:55;;;;;;;7.90;5.72;;;14.60;89.90;;;;;;5017452;28;20029;-78
2021/10/31 06:01:21;;;;;;;8.40;5.82;;;14.60;90.10;;;;;;5026820;28;20104;-77
2021/10/31 06:03:47;;;;;;;10.02;5.70;;;14.60;90.00;;;;;;5019214;28;20483;-77
2021/10/31 06:06:12;;;;;;;8.85;5.93;;;14.60;90.10;;;;;;5015730;28;20029;-77
2021/10/31 06:08:38;;;;;;;7.95;5.43;;;14.60;90.10;;;;;;5015653;28;20026;-78
2021/10/31 06:11:03;;;;;;;9.00;5.82;;;14.60;90.10;;;;;;5015920;28;20029;-78
2021/10/31 06:13:29;;;;;;;8.00;5.55;;;14.50;90.10;;;;;;5015832;28;20498;-78
2021/10/31 06:15:55;;;;;;;8.10;5.20;;;14.60;90.10;;;;;;5015117;28;20112;-78
2021/10/31 06:18:20;;;;;;;7.72;5.60;;;14.50;90.00;;;;;;5015234;28;20041;-78
2021/10/31 06:20:47;;;;;;;8.73;5.60;;;14.60;90.10;;;;;;5016501;28;20164;-78
2021/10/31 06:23:14;;;;;;;8.57;5.70;;;14.60;90.10;;;;;;5016164;28;20030;-78
2021/10/31 06:25:40;;;;;;;7.30;5.20;;;14.60;90.10;;;;;;5016432;28;20121;-77
2021/10/31 06:28:07;;;;;;;8.07;6.03;;;14.60;90.00;;;;;;5015458;28;20504;-77
2021/10/31 06:30:32;;;;;;;8.93;5.47;;;14.60;90.10;;;;;;5017697;28;20113;-78
2021/10/31 06:32:58;;;;;;;8.20;5.93;;;14.60;90.10;;;;;;5015324;28;20057;-78
2021/10/31 06:35:23;;;;;;;8.75;5.55;;;14.50;90.10;;;;;;5014825;28;20093;-78
2021/10/31 06:37:49;;;;;;;7.40;5.35;;;14.60;90.10;;;;;;5016360;28;20022;-77
2021/10/31 06:40:15;;;;;;;7.65;5.75;;;14.60;90.10;;;;;;5015588;28;20038;-78
2021/10/31 06:42:41;;;;;;;8.95;6.03;;;14.60;90.10;;;;;;5014900;28;20037;-77
2021/10/31 06:45:07;;;;;;;8.18;6.13;;;14.60;90.10;;;;;;5014791;28;20112;-76
2021/10/31 06:47:32;;;;;;;8.40;5.97;;;14.60;90.10;;;;;;5014522;28;20619;-78
2021/10/31 06:49:59;;;;;;;8.60;5.90;;;14.60;90.00;;;;;;5015876;28;20030;-77
2021/10/31 06:52:25;;;;;;;9.35;6.20;;;14.60;90.00;;;;;;5014566;28;20162;-78
2021/10/31 06:54:51;;;;;;;9.27;5.95;;;14.60;90.00;;;;;;5014328;28;20052;-78
2021/10/31 06:57:17;;;;;;;8.35;5.65;;;14.60;90.00;;;;;;5015654;28;20053;-78
2021/10/31 06:59:43;;;;;;;8.55;6.10;;;14.60;90.00;;;;;;5015713;28;20064;-78
2021/10/31 07:02:08;;;;;;;9.93;6.70;;;14.60;90.00;;;;;;5015784;28;20026;-78
2021/10/31 07:04:34;;;;;;;8.43;6.18;;;14.60;90.00;;;;;;5014391;28;20018;-78
2021/10/31 07:07:00;;;;;;;7.60;5.40;;;14.60;90.00;;;;;;5015267;28;20106;-78
2021/10/31 07:09:26;;;;;;;8.95;6.20;;;14.60;90.00;;;;;;5020271;28;20026;-79
2021/10/31 07:11:52;;;;;;;9.30;6.57;;;14.60;90.00;;;;;;5019239;28;20022;-79
2021/10/31 07:14:17;;;;;;;8.20;5.95;;;14.60;90.00;;;;;;5019363;28;20372;-79
2021/10/31 07:16:43;;;;;;;8.75;6.13;;;14.60;90.00;;;;;;5018077;28;20089;-78
2021/10/31 07:19:09;;;;;;;8.07;5.53;;;14.60;89.90;;;;;;5019060;28;20105;-78
2021/10/31 07:21:36;;;;;;;8.48;6.03;;;14.60;89.80;;;;;;5018366;28;20694;-79
2021/10/31 07:24:02;;;;;;;8.50;5.95;;;14.70;89.40;;;;;;5018263;28;20026;-78
2021/10/31 07:26:27;;;;;;;8.98;5.75;;;14.70;89.40;;;;;;5018127;28;20036;-79
2021/10/31 07:28:53;;;;;;;9.05;6.00;;;14.70;89.40;;;;;;5018075;28;20030;-78
2021/10/31 07:31:20;;;;;;;8.77;6.20;;;14.70;89.20;;;;;;5017671;28;20395;-79
2021/10/31 07:33:46;;;;;;;8.48;5.75;;;14.70;89.00;;;;;;5017582;28;20050;-78
2021/10/31 07:36:11;;;;;;;8.85;6.10;;;14.70;89.10;;;;;;5018630;28;20033;-78
2021/10/31 07:38:40;;;;;;;8.30;6.05;;;14.80;88.90;;;;;;5018725;28;20541;-78
2021/10/31 07:41:06;;;;;;;9.15;6.53;;;14.80;88.80;;;;;;5019646;28;20074;-79
2021/10/31 07:43:31;;;;;;;8.50;6.00;;;14.80;88.90;;;;;;5018627;28;20053;-79
2021/10/31 07:45:58;;;;;;;9.45;6.63;;;14.80;89.00;;;;;;5016854;28;20402;-77
2021/10/31 07:48:24;;;;;;;8.95;6.32;;;14.80;88.90;;;;;;5010097;28;20483;-78
2021/10/31 07:50:49;;;;;;;8.30;6.22;;;14.80;88.90;;;;;;5009624;28;20037;-77
2021/10/31 07:53:15;;;;;;;8.35;6.10;;;14.80;88.80;;;;;;5003139;28;20041;-79
2021/10/31 07:55:44;;;;;;;8.70;6.28;;;14.90;88.70;;;;;;5012824;28;20026;-78
2021/10/31 07:58:10;;;;;;;8.77;6.40;;;15.00;88.30;;;;;;5015370;28;20029;-78
2021/10/31 08:00:36;;;;;;;9.15;6.82;;;15.00;88.10;;;;;;5012807;28;20030;-78
2021/10/31 08:03:02;;;;;;;8.77;6.55;;;15.10;88.00;;;;;;5014730;28;20053;-79
2021/10/31 08:05:27;;;;;;;9.32;6.95;;;15.10;87.90;;;;;;5014703;28;20479;-78
2021/10/31 08:07:54;;;;;;;8.52;6.13;;;15.10;87.60;;;;;;5014351;28;20026;-78
2021/10/31 08:10:21;;;;;;;10.18;6.95;;;15.10;87.60;;;;;;5013491;28;20049;-79
2021/10/31 08:12:47;;;;;;;9.13;6.78;;;15.10;87.70;;;;;;5013884;28;20045;-77
2021/10/31 08:15:13;;;;;;;8.30;6.40;;;15.10;87.80;;;;;;5012711;28;20033;-78
2021/10/31 08:17:38;;;;;;;9.57;6.35;;;15.10;87.90;;;;;;5011689;28;20025;-78
2021/10/31 08:20:05;;;;;;;10.05;6.85;;;15.00;87.90;;;;;;5014380;28;20030;-78
2021/10/31 08:22:30;;;;;;;8.65;6.38;;;15.00;88.00;;;;;;5013295;28;20550;-77
2021/10/31 08:24:56;;;;;;;9.13;6.68;;;15.00;88.00;;;;;;5013401;28;20061;-80
2021/10/31 08:27:22;;;;;;;8.43;6.15;;;15.00;88.00;;;;;;5012552;28;20037;-79
2021/10/31 08:29:48;;;;;;;8.95;6.55;;;15.00;88.10;;;;;;5013276;28;20037;-78
2021/10/31 08:32:14;;;;;;;8.77;6.05;;;15.00;88.20;;;;;;5012845;28;20030;-79
2021/10/31 08:34:40;;;;;;;8.88;6.47;;;15.00;88.30;;;;;;5012922;28;20384;-78
2021/10/31 08:37:05;;;;;;;8.85;6.57;;;15.00;88.40;;;;;;5012398;28;20033;-78
2021/10/31 08:39:31;;;;;;;8.57;6.05;;;15.00;88.60;;;;;;5013144;28;20041;-78
2021/10/31 08:41:57;;;;;;;8.57;6.22;;;14.90;88.70;;;;;;5012528;28;20022;-78
2021/10/31 08:44:23;;;;;;;8.60;6.30;;;15.00;88.80;;;;;;5011605;28;20026;-79
2021/10/31 08:46:49;;;;;;;9.07;6.45;;;14.90;88.80;;;;;;5012741;28;20103;-78
2021/10/31 08:49:16;;;;;;;8.88;6.55;;;14.90;88.90;;;;;;5011893;28;20069;-78
2021/10/31 08:51:42;;;;;;;8.63;6.45;;;14.90;89.00;;;;;;5011494;28;20037;-78
2021/10/31 08:54:07;;;;;;;9.00;6.35;;;14.90;89.00;;;;;;5012843;28;20030;-78
2021/10/31 08:56:33;;;;;;;9.77;6.70;;;14.90;88.70;;;;;;5009423;28;20026;-78
2021/10/31 08:59:00;;;;;;;8.45;6.65;;;15.00;88.80;;;;;;5011016;28;20022;-79
2021/10/31 09:01:30;;;;;;;8.75;6.28;;;15.00;88.70;;;;;;5012253;28;20034;-79
2021/10/31 09:03:56;;;;;;;8.80;6.35;;;15.00;88.60;;;;;;5012189;28;20091;-78
2021/10/31 09:06:25;;;;;;;9.32;6.70;;;15.10;88.50;;;;;;5009367;28;20026;-79
2021/10/31 09:08:51;;;;;;;8.05;6.03;;;15.10;88.20;;;;;;5010598;28;20033;-79
2021/10/31 09:11:17;;;;;;;7.53;5.93;;;15.20;88.00;;;;;;5011751;28;20034;-78
2021/10/31 09:13:42;;;;;;;8.88;6.53;;;15.20;87.90;;;;;;5010393;28;20083;-78
2021/10/31 09:16:08;;;;;;;7.85;5.80;;;15.30;87.90;;;;;;5010729;28;20072;-78
2021/10/31 09:18:34;;;;;;;7.90;6.05;;;15.30;87.80;;;;;;5008951;28;20033;-77
2021/10/31 09:21:01;;;;;;;8.07;5.85;;;15.30;87.80;;;;;;5008725;28;20112;-77
2021/10/31 09:23:27;;;;;;;8.10;5.75;;;15.30;87.70;;;;;;5008984;28;20534;-77
2021/10/31 09:25:53;;;;;;;9.40;6.00;;;15.30;87.70;;;;;;5006295;28;20030;-77
2021/10/31 09:28:18;;;;;;;9.48;5.75;;;15.30;87.80;;;;;;5008055;28;20037;-77
2021/10/31 09:30:44;;;;;;;9.05;6.57;;;15.30;87.80;;;;;;4998338;28;20023;-77
2021/10/31 09:33:11;;;;;;;8.57;5.90;;;15.30;88.00;;;;;;4997468;28;20074;-77
2021/10/31 09:35:49;;;;;;;8.57;5.50;;;15.30;88.10;;;;;;5003968;28;20080;-77
2021/10/31 09:38:17;;;;;;;8.27;5.65;;;15.20;88.00;;;;;;5007047;28;20041;-76
2021/10/31 09:40:44;;;;;;;8.70;6.20;;;15.30;88.10;;;;;;5007187;28;20018;-77
2021/10/31 09:43:09;;;;;;;8.50;6.38;;;15.20;88.00;;;;;;5008864;28;20048;-76
2021/10/31 09:45:36;;;;;;;7.95;5.30;;;15.20;88.00;;;;;;5008669;28;20026;-77
2021/10/31 09:48:05;;;;;;;8.65;6.10;;;15.30;88.00;;;;;;5007401;28;20113;-78
2021/10/31 09:50:34;;;;;;;8.70;6.07;;;15.30;88.00;;;;;;5008650;28;20101;-77
2021/10/31 09:53:00;;;;;;;7.78;5.45;;;15.30;87.90;;;;;;5007378;28;20111;-77
2021/10/31 09:55:27;;;;;;;7.53;5.38;;;15.30;87.70;;;;;;5007224;28;20568;-77
2021/10/31 09:57:53;;;;;;;7.57;5.45;;;15.30;87.60;;;;;;5008425;28;20037;-77
2021/10/31 10:00:21;;;;;;;7.60;5.05;;;15.30;87.50;;;;;;5007426;28;20395;-77
2021/10/31 10:05:30;;;;;;;7.30;5.25;;;15.40;87.90;;;;;;5008450;28;20038;-77
2021/10/31 10:08:15;;;;;;;7.88;5.40;;;15.40;87.50;;;;;;5008462;28;20165;-77
2021/10/31 10:10:52;;;;;;;7.32;5.25;;;15.40;87.40;;;;;;5008768;28;20029;-77
2021/10/31 10:13:19;;;;;;;7.97;5.47;;;15.40;87.50;;;;;;5007805;28;20034;-77
2021/10/31 10:15:46;;;;;;;7.38;5.38;;;15.30;87.50;;;;;;5008552;28;20092;-76
2021/10/31 10:18:31;;;;;;;7.15;4.85;;;15.30;87.50;;;;;;5011770;28;20519;-78
2021/10/31 10:21:17;;;;;;;7.43;5.22;;;15.30;87.60;;;;;;5011877;28;20030;-77
2021/10/31 10:23:53;;;;;;;7.50;4.97;;;15.30;87.70;;;;;;5011580;28;20033;-76
2021/10/31 10:26:25;;;;;;;8.25;5.63;;;15.30;87.80;;;;;;5011389;28;20037;-78
2021/10/31 10:28:51;;;;;;;7.18;5.13;;;15.20;87.90;;;;;;5010910;28;20030;-77
2021/10/31 10:31:22;;;;;;;6.68;4.50;;;15.20;88.00;;;;;;5010969;28;20487;-77
2021/10/31 10:33:49;;;;;;;7.68;5.47;;;15.20;88.10;;;;;;5011300;28;20116;-76
2021/10/31 10:36:16;;;;;;;7.35;5.13;;;15.20;88.10;;;;;;4992474;28;20073;-77
2021/10/31 10:38:57;;;;;;;6.88;4.70;;;15.20;88.20;;;;;;5004961;28;20027;-77
2021/10/31 10:41:42;;;;;;;6.82;4.85;;;15.20;88.10;;;;;;4990018;28;20026;-77
2021/10/31 10:44:37;;;;;;;7.80;5.05;;;15.20;88.00;;;;;;4991221;28;20022;-75
2021/10/31 10:47:05;;;;;;;7.63;4.65;;;15.20;88.00;;;;;;4989902;28;20033;-77
2021/10/31 10:49:34;;;;;;;6.82;4.25;;;15.20;87.90;;;;;;4990479;28;20373;-77
2021/10/31 10:52:19;;;;;;;7.15;4.78;;;15.30;87.90;;;;;;4989746;28;20031;-76
2021/10/31 10:54:48;;;;;;;6.78;4.32;;;15.30;87.80;;;;;;4990655;28;20133;-78
2021/10/31 10:57:14;;;;;;;6.47;4.35;;;15.30;87.70;;;;;;5004702;28;20038;-78
2021/10/31 10:59:40;;;;;;;5.97;4.03;;;15.40;87.70;;;;;;5009610;28;20049;-77
2021/10/31 11:02:13;;;;;;;6.28;4.20;;;15.40;87.60;;;;;;5006480;28;20026;-76
2021/10/31 11:04:40;;;;;;;6.47;4.55;;;15.40;87.40;;;;;;4991426;28;20605;-76
2021/10/31 11:07:07;;;;;;;6.20;4.10;;;15.40;87.30;;;;;;4992854;28;20066;-76
2021/10/31 11:09:42;;;;;;;6.32;4.25;;;15.40;87.30;;;;;;5009238;28;20057;-79
2021/10/31 11:12:36;;;;;;;6.72;4.40;;;15.40;87.30;;;;;;5005788;28;20514;-76
2021/10/31 11:15:09;;;;;;;8.57;4.25;;;15.40;87.30;;;;;;5005772;28;20453;-76
2021/10/31 11:17:36;;;;;;;8.95;4.57;;;15.40;87.30;;;;;;5008723;28;20026;-76
2021/10/31 11:20:04;;;;;;;10.55;4.35;;;15.40;87.40;;;;;;5008799;28;20057;-76
2021/10/31 11:22:31;;;;;;;12.00;4.30;;;15.40;87.50;;;;;;5009679;28;20046;-77
2021/10/31 11:24:59;;;;;;;19.88;4.63;;;15.40;87.60;;;;;;5008779;28;20076;-75
2021/10/31 11:27:27;;;;;;;19.45;4.90;;;15.30;87.70;;;;;;5008718;28;20128;-76
2021/10/31 11:29:54;;;;;;;18.88;4.85;;;15.30;87.80;;;;;;5007758;28;20053;-76
2021/10/31 11:32:21;;;;;;;24.77;5.20;;;15.30;87.80;;;;;;5009679;28;20487;-76
2021/10/31 11:34:49;;;;;;;22.13;4.70;;;15.30;87.90;;;;;;5009178;28;20076;-76
2021/10/31 11:37:19;;;;;;;18.58;4.68;;;15.30;88.00;;;;;;5009518;28;20056;-76
2021/10/31 11:39:46;;;;;;;16.08;4.78;;;15.30;88.00;;;;;;5008585;28;20030;-76
2021/10/31 11:42:14;;;;;;;14.32;4.22;;;15.30;88.00;;;;;;5009524;28;20403;-76
2021/10/31 11:45:04;;;;;;;18.05;4.25;;;15.30;88.00;;;;;;5008638;28;20022;-76
2021/10/31 11:47:31;;;;;;;13.60;4.47;;;15.30;88.00;;;;;;5008977;28;20057;-76
2021/10/31 11:50:12;;;;;;;14.25;4.03;;;15.30;88.00;;;;;;5009401;28;20077;-76
2021/10/31 11:52:48;;;;;;;13.13;4.05;;;15.40;88.00;;;;;;5008152;28;20021;-75
2021/10/31 11:55:27;;;;;;;13.60;3.55;;;15.40;88.00;;;;;;5007580;28;20153;-76
2021/10/31 11:58:19;;;;;;;15.70;3.88;;;15.30;87.90;;;;;;5009199;28;20483;-76
2021/10/31 12:00:52;;;;;;;10.98;3.88;;;15.40;88.00;;;;;;5008660;28;20477;-76
2021/10/31 12:03:38;;;;;;;12.23;3.90;;;15.40;88.10;;;;;;4996260;28;20022;-76
2021/10/31 12:06:16;;;;;;;13.20;3.85;;;15.30;88.00;;;;;;4997492;28;20419;-76
2021/10/31 12:09:08;;;;;;;11.73;3.95;;;15.40;88.10;;;;;;5005233;28;20029;-76
2021/10/31 12:11:34;;;;;;;11.55;3.88;;;15.40;88.20;;;;;;5008093;28;20053;-76
2021/10/31 12:14:08;;;;;;;10.23;3.72;;;15.40;88.10;;;;;;5009380;28;20446;-75
2021/10/31 12:16:52;;;;;;;10.07;3.60;;;15.40;88.10;;;;;;5008979;28;20752;-77
2021/10/31 12:19:34;;;;;;;9.20;3.50;;;15.40;88.10;;;;;;5007538;28;20034;-76
2021/10/31 12:22:29;;;;;;;10.90;3.80;;;15.40;88.30;;;;;;4995643;28;20081;-77
2021/10/31 12:25:00;;;;;;;7.63;3.20;;;15.40;88.10;;;;;;4983824;28;20586;-77
2021/10/31 12:27:38;;;;;;;11.50;3.65;;;15.40;88.00;;;;;;4988174;28;20130;-75
2021/10/31 12:30:15;;;;;;;9.68;3.30;;;15.40;87.90;;;;;;4989494;28;20109;-76
2021/10/31 12:33:12;;;;;;;8.48;3.45;;;15.40;87.90;;;;;;4989211;28;20031;-76
2021/10/31 12:35:40;;;;;;;8.35;3.15;;;15.40;87.80;;;;;;4989075;28;20033;-76
2021/10/31 12:38:22;;;;;;;7.63;3.30;;;15.50;87.70;;;;;;4989775;28;20026;-77
2021/10/31 12:41:18;;;;;;;8.65;3.25;;;15.50;87.70;;;;;;5002983;28;20037;-76
2021/10/31 12:43:46;;;;;;;8.45;3.30;;;15.50;87.70;;;;;;5007877;28;20698;-77
2021/10/31 12:46:21;;;;;;;8.20;2.90;;;15.50;87.70;;;;;;5008139;28;20603;-76
2021/10/31 12:48:50;;;;;;;7.53;2.90;;;15.50;87.70;;;;;;5008419;28;20071;-76
2021/10/31 12:51:44;;;;;;;7.55;3.30;;;15.50;87.70;;;;;;5008576;28;20037;-77
2021/10/31 12:54:33;;;;;;;7.28;3.05;;;15.50;87.80;;;;;;5008655;28;20079;-75
2021/10/31 12:57:04;;;;;;;7.53;3.20;;;15.50;87.90;;;;;;5007748;28;20026;-76
2021/10/31 12:59:30;;;;;;;5.88;2.97;;;15.40;87.90;;;;;;5007456;28;20080;-76